Time;durP1;ratioP1;P1;durP2;ratioP2;P2;SDS_P1;SDS_P2;PMS_P1;PMS_P2;Temp;Humidity;BMP_temperature;BMP_pressure;BME280_temperature;BME280_humidity;BME280_pressure;Samples;Min_cycle;Max_cycle;Signal;HPM_P1;HPM_P2
2022/05/25 00:00:44;;;;;;;2.92;1.10;;;;;;;8.70;100.00;96265.75;5014951;28;20095;-71
2022/05/25 00:03:10;;;;;;;5.60;1.00;;;;;;;8.73;100.00;96267.16;5004274;28;20087;-73
2022/05/25 00:05:36;;;;;;;3.78;0.90;;;;;;;8.71;100.00;96266.56;5014938;28;20140;-73
2022/05/25 00:08:02;;;;;;;4.03;0.80;;;;;;;8.49;100.00;96269.16;5014682;28;20039;-74
2022/05/25 00:10:27;;;;;;;5.60;0.90;;;;;;;8.51;100.00;96262.53;5012363;28;20502;-75
2022/05/25 00:12:53;;;;;;;3.47;1.00;;;;;;;8.44;100.00;96266.38;5012104;28;20274;-70
2022/05/25 00:15:18;;;;;;;3.03;0.88;;;;;;;8.43;100.00;96270.91;5015465;28;20037;-70
2022/05/25 00:17:44;;;;;;;1.95;0.93;;;;;;;8.44;100.00;96258.38;5012391;28;20551;-71
2022/05/25 00:20:11;;;;;;;4.03;0.82;;;;;;;8.49;100.00;96264.63;5013055;28;20546;-73
2022/05/25 00:22:48;;;;;;;2.28;0.98;;;;;;;8.54;100.00;96275.38;5015662;28;20049;-73
2022/05/25 00:25:20;;;;;;;2.03;0.85;;;;;;;8.49;100.00;96269.97;5015959;28;20110;-74
2022/05/25 00:27:47;;;;;;;2.72;1.05;;;;;;;8.51;100.00;96277.72;5011807;28;20040;-73
2022/05/25 00:30:14;;;;;;;3.22;0.90;;;;;;;8.56;100.00;96277.78;5015100;28;20037;-75
2022/05/25 00:32:40;;;;;;;3.03;1.20;;;;;;;8.57;100.00;96282.09;5014558;28;20087;-72
2022/05/25 00:35:08;;;;;;;2.15;0.90;;;;;;;8.61;100.00;96284.03;5015829;28;20112;-74
2022/05/25 00:37:34;;;;;;;2.63;0.90;;;;;;;8.67;100.00;96286.78;5013110;28;20053;-73
2022/05/25 00:40:00;;;;;;;4.05;0.85;;;;;;;8.71;100.00;96291.38;5016016;28;20404;-72
2022/05/25 00:42:25;;;;;;;3.20;1.02;;;;;;;8.70;100.00;96292.44;5017040;28;20041;-72
2022/05/25 00:44:51;;;;;;;2.67;0.90;;;;;;;8.76;100.00;96285.34;5016459;28;20523;-73
2022/05/25 00:47:24;;;;;;;2.03;0.95;;;;;;;8.68;100.00;96281.22;5015941;28;20190;-74
2022/05/25 00:49:49;;;;;;;2.67;1.00;;;;;;;8.34;100.00;96280.31;5017046;28;20545;-72
2022/05/25 00:52:15;;;;;;;1.90;0.90;;;;;;;8.34;100.00;96277.66;5033856;28;20464;-73
2022/05/25 00:54:59;;;;;;;6.00;1.20;;;;;;;8.16;100.00;96280.47;5016541;28;20327;-73
2022/05/25 00:57:29;;;;;;;1.77;0.88;;;;;;;8.12;100.00;96276.69;5017403;28;20119;-72
2022/05/25 01:00:13;;;;;;;3.30;1.10;;;;;;;8.05;100.00;96293.63;5018592;28;20046;-75
2022/05/25 01:02:42;;;;;;;2.08;1.00;;;;;;;8.05;100.00;96290.94;5020187;28;20229;-73
2022/05/25 01:05:09;;;;;;;5.47;1.10;;;;;;;8.03;100.00;96295.72;5015741;28;20040;-74
2022/05/25 01:08:03;;;;;;;2.15;1.20;;;;;;;8.19;100.00;96285.34;5018321;28;20037;-72
2022/05/25 01:10:53;;;;;;;3.95;1.13;;;;;;;8.37;100.00;96290.53;5018317;28;20231;-74
2022/05/25 01:13:44;;;;;;;4.68;1.15;;;;;;;8.32;100.00;96287.72;5033303;28;20210;-72
2022/05/25 01:16:37;;;;;;;3.60;1.30;;;;;;;8.28;100.00;96289.25;5017993;28;20057;-72
2022/05/25 01:19:12;;;;;;;3.42;1.38;;;;;;;8.41;100.00;96302.34;5017510;28;20053;-77
2022/05/25 01:21:52;;;;;;;2.58;1.45;;;;;;;8.54;100.00;96302.03;5017008;28;20115;-75
2022/05/25 01:24:49;;;;;;;3.20;1.10;;;;;;;8.53;100.00;96299.59;5016369;28;20449;-75
2022/05/25 01:27:31;;;;;;;4.93;1.42;;;;;;;8.40;100.00;96300.69;5016443;28;20420;-73
2022/05/25 01:30:05;;;;;;;2.25;1.10;;;;;;;8.25;100.00;96303.03;5019217;28;20046;-71
2022/05/25 01:32:59;;;;;;;4.13;1.40;;;;;;;8.17;100.00;96298.91;5016033;28;20049;-74
2022/05/25 01:35:49;;;;;;;2.47;1.20;;;;;;;7.99;100.00;96310.53;5019034;28;20045;-72
2022/05/25 01:38:34;;;;;;;2.78;1.20;;;;;;;7.85;100.00;96306.50;5017759;28;20071;-76
2022/05/25 01:41:11;;;;;;;7.22;1.40;;;;;;;7.93;100.00;96316.81;5015862;28;20079;-76
2022/05/25 01:43:46;;;;;;;2.70;1.40;;;;;;;7.96;100.00;96316.34;4997938;28;20116;-72
2022/05/25 01:46:18;;;;;;;4.35;1.30;;;;;;;7.86;100.00;96321.47;5020472;28;20045;-75
2022/05/25 01:48:46;;;;;;;3.78;1.40;;;;;;;7.87;100.00;96328.41;5018594;28;20044;-74
2022/05/25 01:51:21;;;;;;;2.97;1.55;;;;;;;7.79;100.00;96312.78;5017543;28;20388;-73
2022/05/25 01:53:53;;;;;;;2.90;1.30;;;;;;;7.75;100.00;96322.28;4999862;28;20049;-72
2022/05/25 01:56:21;;;;;;;3.50;1.55;;;;;;;7.64;100.00;96320.47;4999768;28;20041;-73
2022/05/25 01:58:51;;;;;;;3.70;1.38;;;;;;;7.52;100.00;96326.59;5016831;28;20033;-75
2022/05/25 02:01:17;;;;;;;2.42;1.38;;;;;;;7.56;100.00;96324.28;5015772;28;20038;-72
2022/05/25 02:06:55;;;;;;;2.90;1.40;;;;;;;7.47;100.00;96326.50;5019497;28;20273;-73
2022/05/25 02:09:32;;;;;;;3.80;1.50;;;;;;;7.49;100.00;96326.25;5015792;28;20091;-73
2022/05/25 02:12:05;;;;;;;3.22;1.30;;;;;;;7.38;100.00;96322.53;5015789;28;20041;-73
2022/05/25 02:14:57;;;;;;;3.75;1.50;;;;;;;7.35;100.00;96316.88;5010411;28;20136;-72
2022/05/25 02:17:38;;;;;;;6.65;2.03;;;;;;;7.25;100.00;96320.09;5017568;28;20045;-74
2022/05/25 02:20:09;;;;;;;2.33;1.27;;;;;;;7.15;100.00;96317.19;5015926;28;20124;-74
2022/05/25 02:22:44;;;;;;;3.55;1.50;;;;;;;7.10;100.00;96325.06;5018642;28;20458;-75
2022/05/25 02:25:33;;;;;;;2.40;1.23;;;;;;;7.12;100.00;96338.94;5018868;28;20045;-74
2022/05/25 02:28:35;;;;;;;9.10;1.73;;;;;;;7.15;100.00;96335.81;5028646;28;20044;-77
2022/05/25 02:31:04;;;;;;;2.58;1.58;;;;;;;7.14;100.00;96332.34;4982278;28;20045;-76
2022/05/25 02:33:42;;;;;;;5.53;1.80;;;;;;;7.15;100.00;96325.16;5017870;28;20037;-77
2022/05/25 02:36:10;;;;;;;3.13;1.80;;;;;;;7.15;100.00;96327.84;5000432;28;20041;-72
2022/05/25 02:38:38;;;;;;;6.68;2.25;;;;;;;7.09;100.00;96331.44;5014563;28;20034;-75
2022/05/25 02:41:13;;;;;;;4.57;1.50;;;;;;;6.89;100.00;96334.38;5016390;28;20519;-71
2022/05/25 02:43:39;;;;;;;5.93;1.63;;;;;;;6.83;100.00;96340.59;5016779;28;20126;-72
2022/05/25 02:46:06;;;;;;;4.35;1.90;;;;;;;6.90;100.00;96342.13;5015145;28;20052;-72
2022/05/25 02:48:33;;;;;;;6.10;2.15;;;;;;;6.95;100.00;96328.16;5016522;28;20048;-73
2022/05/25 02:50:59;;;;;;;7.68;1.50;;;;;;;6.90;100.00;96334.16;5016113;28;20779;-73
2022/05/25 02:53:24;;;;;;;5.05;1.73;;;;;;;6.94;100.00;96334.53;5013584;28;20587;-74
2022/05/25 02:55:50;;;;;;;4.93;2.03;;;;;;;6.97;100.00;96331.41;5018709;28;20123;-72
2022/05/25 02:58:16;;;;;;;8.70;2.90;;;;;;;6.89;100.00;96331.72;5014174;28;20091;-74
2022/05/25 03:00:42;;;;;;;4.07;1.90;;;;;;;6.93;100.00;96328.41;5016919;28;20045;-73
2022/05/25 03:03:08;;;;;;;4.63;1.85;;;;;;;6.80;100.00;96335.75;5002009;28;20042;-73
2022/05/25 03:05:33;;;;;;;6.65;2.10;;;;;;;6.87;100.00;96347.13;5007270;28;20053;-73
2022/05/25 03:07:59;;;;;;;7.88;2.28;;;;;;;6.81;100.00;96342.69;5017324;28;20551;-75
2022/05/25 03:10:24;;;;;;;4.72;2.15;;;;;;;6.80;100.00;96341.88;5013711;28;20176;-73
2022/05/25 03:12:50;;;;;;;5.72;1.70;;;;;;;6.67;100.00;96347.38;5016241;28;20499;-72
2022/05/25 03:15:20;;;;;;;3.40;1.90;;;;;;;6.59;100.00;96342.38;5016231;28;20037;-76
2022/05/25 03:17:47;;;;;;;7.25;2.25;;;;;;;6.44;100.00;96348.09;5016518;28;20342;-74
2022/05/25 03:20:13;;;;;;;4.20;2.38;;;;;;;6.53;100.00;96356.56;5016490;28;20049;-74
2022/05/25 03:22:40;;;;;;;7.95;2.50;;;;;;;6.58;100.00;96356.72;5017014;28;20422;-74
2022/05/25 03:25:06;;;;;;;3.30;2.00;;;;;;;6.57;100.00;96369.22;5017405;28;20077;-73
2022/05/25 03:27:32;;;;;;;3.92;2.00;;;;;;;6.48;100.00;96365.25;5016218;28;20052;-77
2022/05/25 03:29:57;;;;;;;5.03;1.90;;;;;;;6.47;100.00;96374.25;4998346;28;20042;-73
2022/05/25 03:32:23;;;;;;;6.78;1.90;;;;;;;6.42;100.00;96377.56;5015731;28;20492;-73
2022/05/25 03:34:48;;;;;;;5.15;2.10;;;;;;;6.42;100.00;96376.75;5017752;28;20033;-73
2022/05/25 03:37:14;;;;;;;5.30;2.13;;;;;;;6.34;100.00;96375.22;5015066;28;20547;-76
2022/05/25 03:39:39;;;;;;;4.15;2.17;;;;;;;6.24;100.00;96371.47;5017334;28;20257;-75
2022/05/25 03:42:07;;;;;;;4.18;2.00;;;;;;;6.27;100.00;96377.16;5012465;28;20046;-73
2022/05/25 03:44:35;;;;;;;3.85;2.55;;;;;;;6.32;100.00;96379.97;5017430;28;20072;-73
2022/05/25 03:47:00;;;;;;;10.85;2.70;;;;;;;6.30;100.00;96384.69;5017206;28;20072;-72
2022/05/25 03:49:26;;;;;;;5.45;2.97;;;;;;;6.40;100.00;96382.31;5016209;28;20128;-74
2022/05/25 03:51:51;;;;;;;4.97;3.63;;;;;;;6.48;100.00;96383.84;5013059;28;20529;-73
2022/05/25 03:54:17;;;;;;;6.55;3.70;;;;;;;6.51;100.00;96396.69;5013841;28;20167;-74
2022/05/25 03:56:43;;;;;;;8.43;3.28;;;;;;;6.53;100.00;96391.94;5012122;28;20099;-73
2022/05/25 03:59:08;;;;;;;5.90;3.58;;;;;;;6.53;100.00;96383.97;5013950;28;20433;-73
2022/05/25 04:01:36;;;;;;;7.30;3.63;;;;;;;6.56;100.00;96391.53;4999637;28;20042;-73
2022/05/25 04:04:02;;;;;;;6.32;4.00;;;;;;;6.61;100.00;96398.81;5019819;28;20127;-72
2022/05/25 04:06:28;;;;;;;4.18;2.83;;;;;;;6.69;100.00;96403.81;5016402;28;20504;-75
2022/05/25 04:08:53;;;;;;;5.28;2.97;;;;;;;6.73;100.00;96405.00;5013825;28;20045;-73
2022/05/25 04:11:19;;;;;;;4.97;2.47;;;;;;;6.81;100.00;96399.34;5013285;28;21420;-73
2022/05/25 04:13:44;;;;;;;6.40;2.28;;;;;;;6.79;100.00;96404.09;5014561;28;20063;-74
2022/05/25 04:16:10;;;;;;;6.70;2.60;;;;;;;6.72;100.00;96406.03;5015147;28;20033;-77
2022/05/25 04:18:36;;;;;;;6.40;2.80;;;;;;;6.77;100.00;96411.50;5015002;28;20350;-74
2022/05/25 04:21:01;;;;;;;5.20;3.15;;;;;;;6.67;100.00;96406.69;5016151;28;20544;-74
2022/05/25 04:23:28;;;;;;;6.78;2.97;;;;;;;6.77;100.00;96411.50;5017340;28;20345;-74
2022/05/25 04:25:54;;;;;;;7.22;3.20;;;;;;;6.77;100.00;96416.81;5020057;28;20095;-73
2022/05/25 04:28:20;;;;;;;8.43;3.10;;;;;;;6.80;100.00;96419.03;5018514;28;20038;-75
2022/05/25 04:30:46;;;;;;;10.25;3.60;;;;;;;6.82;100.00;96418.78;5018100;28;20040;-72
2022/05/25 04:33:13;;;;;;;10.23;3.70;;;;;;;6.83;100.00;96418.56;5019334;28;20443;-73
2022/05/25 04:35:38;;;;;;;12.50;5.00;;;;;;;6.92;100.00;96421.72;5018537;28;20041;-75
2022/05/25 04:38:06;;;;;;;10.13;4.80;;;;;;;7.01;100.00;96423.03;5016884;28;20064;-74
2022/05/25 04:40:38;;;;;;;10.02;5.10;;;;;;;7.05;100.00;96418.06;5017626;28;20062;-74
2022/05/25 04:43:12;;;;;;;12.75;5.80;;;;;;;7.07;100.00;96427.44;5011341;28;20083;-74
2022/05/25 04:45:39;;;;;;;12.00;5.00;;;;;;;7.18;100.00;96431.19;5016705;28;20033;-74
2022/05/25 04:48:04;;;;;;;16.90;5.25;;;;;;;7.30;100.00;96432.00;5016949;28;20069;-73
2022/05/25 04:50:33;;;;;;;13.35;5.47;;;;;;;7.37;100.00;96443.38;5018462;28;20261;-72
2022/05/25 04:53:00;;;;;;;12.73;4.47;;;;;;;7.46;100.00;96446.50;5014449;28;20326;-74
2022/05/25 04:58:27;;;;;;;16.38;4.53;;;;;;;7.64;100.00;96453.63;5012469;28;20084;-73
2022/05/25 05:00:53;;;;;;;10.85;4.20;;;;;;;7.71;100.00;96449.00;5017717;28;20496;-77
2022/05/25 05:03:20;;;;;;;6.70;3.63;;;;;;;7.79;100.00;96451.31;5018668;28;20112;-74
2022/05/25 05:05:46;;;;;;;8.95;3.60;;;;;;;7.90;100.00;96452.34;5018565;28;20628;-73
2022/05/25 05:08:12;;;;;;;7.47;3.53;;;;;;;7.97;100.00;96442.41;5021076;28;20077;-76
2022/05/25 05:10:37;;;;;;;9.07;3.72;;;;;;;8.14;100.00;96455.81;5019113;28;20112;-75
2022/05/25 05:13:04;;;;;;;7.75;3.38;;;;;;;8.23;100.00;96457.09;5016753;28;20041;-74
2022/05/25 05:15:32;;;;;;;8.93;3.47;;;;;;;8.27;100.00;96450.25;5020262;28;20148;-73
2022/05/25 05:17:58;;;;;;;7.55;3.42;;;;;;;8.37;100.00;96469.97;5017338;28;20053;-76
2022/05/25 05:20:44;;;;;;;13.23;3.65;;;;;;;8.46;100.00;96467.75;5033493;28;20144;-73
2022/05/25 05:23:12;;;;;;;6.55;3.40;;;;;;;8.54;100.00;96470.06;4978106;28;1116559;-73
2022/05/25 05:25:38;;;;;;;9.38;3.58;;;;;;;8.63;100.00;96459.81;5017473;28;20286;-76
2022/05/25 05:28:28;;;;;;;11.70;3.60;;;;;;;8.74;100.00;96463.53;5013561;28;20427;-74
2022/05/25 05:30:56;;;;;;;6.47;3.33;;;;;;;8.77;100.00;96461.19;5016832;28;20046;-72
2022/05/25 05:33:23;;;;;;;7.25;3.03;;;;;;;8.92;100.00;96464.16;5013101;28;20102;-76
2022/05/25 05:35:56;;;;;;;6.68;3.40;;;;;;;9.01;100.00;96458.44;5017132;28;20042;-72
2022/05/25 05:38:23;;;;;;;11.95;3.30;;;;;;;9.10;100.00;96463.16;5015911;28;20426;-73
2022/05/25 05:40:48;;;;;;;6.93;3.42;;;;;;;9.17;100.00;96463.81;5019814;28;20072;-73
2022/05/25 05:43:14;;;;;;;7.53;3.00;;;;;;;9.23;100.00;96464.72;5014315;28;20069;-77
2022/05/25 05:45:43;;;;;;;7.50;3.30;;;;;;;9.30;100.00;96468.06;5016721;28;20049;-72
2022/05/25 05:48:23;;;;;;;7.00;3.13;;;;;;;9.38;100.00;96469.53;5016381;28;20116;-74
2022/05/25 05:50:51;;;;;;;6.00;3.17;;;;;;;9.45;100.00;96480.88;5017080;28;20033;-74
2022/05/25 05:53:18;;;;;;;8.48;3.63;;;;;;;9.47;100.00;96473.44;5016155;28;20042;-74
2022/05/25 05:55:46;;;;;;;9.50;3.45;;;;;;;9.55;100.00;96480.25;5017465;28;20304;-72
2022/05/25 05:58:12;;;;;;;6.50;3.13;;;;;;;9.61;100.00;96484.63;5016406;28;20487;-74
2022/05/25 06:00:38;;;;;;;7.07;3.70;;;;;;;9.56;100.00;96485.34;5004894;28;20051;-72
2022/05/25 06:03:04;;;;;;;9.77;3.45;;;;;;;9.66;100.00;96488.19;5017005;28;20110;-76
2022/05/25 06:05:30;;;;;;;11.80;3.75;;;;;;;9.71;100.00;96482.94;5018430;28;20045;-74
2022/05/25 06:07:56;;;;;;;8.70;3.53;;;;;;;9.80;100.00;96490.53;5020771;28;20563;-74
2022/05/25 06:10:22;;;;;;;7.68;3.85;;;;;;;9.91;100.00;96487.00;5014190;28;20131;-76
2022/05/25 06:12:47;;;;;;;10.00;3.70;;;;;;;10.07;100.00;96494.19;5014476;28;20473;-73
2022/05/25 06:20:48;;;;;;;13.18;3.80;;;;;;;10.21;100.00;96500.84;5017908;28;20481;-76
2022/05/25 06:23:14;;;;;;;10.75;3.25;;;;;;;10.33;100.00;96501.56;5015467;28;20088;-74
2022/05/25 06:25:39;;;;;;;8.60;3.47;;;;;;;10.56;100.00;96500.53;5016223;28;20109;-73
2022/05/25 06:28:05;;;;;;;9.13;3.58;;;;;;;10.66;100.00;96491.03;5013397;28;20178;-76
2022/05/25 06:30:30;;;;;;;10.50;3.72;;;;;;;10.83;100.00;96503.31;5016617;28;20112;-72
2022/05/25 06:32:56;;;;;;;6.90;3.83;;;;;;;10.96;100.00;96495.97;5016925;28;20897;-72
2022/05/25 06:35:21;;;;;;;6.47;3.25;;;;;;;11.38;100.00;96488.94;5016936;28;20348;-75
2022/05/25 06:37:48;;;;;;;9.77;3.55;;;;;;;11.67;100.00;96486.00;5006322;28;20579;-74
2022/05/25 06:40:14;;;;;;;6.25;3.70;;;;;;;11.53;100.00;96493.66;5017883;28;20540;-73
2022/05/25 06:42:41;;;;;;;8.18;3.50;;;;;;;11.44;100.00;96487.13;5012237;28;20770;-76
2022/05/25 06:45:09;;;;;;;11.63;3.95;;;;;;;11.30;100.00;96497.44;5028301;28;20051;-76
2022/05/25 06:47:35;;;;;;;7.15;3.70;;;;;;;11.12;100.00;96500.44;5014478;28;20061;-72
2022/05/25 06:50:01;;;;;;;6.68;3.65;;;;;;;10.99;100.00;96507.00;5016130;28;20042;-73
2022/05/25 06:52:26;;;;;;;8.48;3.97;;;;;;;11.05;100.00;96503.31;5014732;28;20519;-73
2022/05/25 06:54:53;;;;;;;8.18;3.72;;;;;;;11.30;100.00;96505.47;5015585;28;20155;-73
2022/05/25 06:57:19;;;;;;;8.30;4.07;;;;;;;11.46;100.00;96495.72;5029209;28;20044;-73
2022/05/25 06:59:44;;;;;;;7.78;3.95;;;;;;;11.61;100.00;96503.09;5015209;28;20041;-71
2022/05/25 07:02:09;;;;;;;10.00;3.92;;;;;;;11.62;100.00;96513.56;5017164;28;20527;-71
2022/05/25 07:04:35;;;;;;;9.80;4.10;;;;;;;11.67;100.00;96512.78;5017243;28;20567;-71
2022/05/25 07:07:01;;;;;;;6.45;3.20;;;;;;;11.93;100.00;96512.00;5012170;28;20062;-70
2022/05/25 07:09:27;;;;;;;9.38;3.70;;;;;;;11.74;100.00;96491.97;5014356;28;20103;-71
2022/05/25 07:11:52;;;;;;;10.05;3.55;;;;;;;11.72;100.00;96521.69;5014396;28;20454;-71
2022/05/25 07:14:18;;;;;;;9.02;3.60;;;;;;;11.76;100.00;96522.03;5017221;28;20044;-72
2022/05/25 07:16:43;;;;;;;8.77;3.53;;;;;;;11.82;100.00;96515.66;5018823;28;20049;-73
2022/05/25 07:19:09;;;;;;;10.38;3.42;;;;;;;11.69;100.00;96527.59;5016963;28;20504;-72
2022/05/25 07:21:35;;;;;;;9.10;3.72;;;;;;;11.55;100.00;96544.31;5013820;28;21096;-74
2022/05/25 07:24:02;;;;;;;8.43;3.60;;;;;;;11.73;100.00;96528.69;5017260;28;20051;-70
2022/05/25 07:26:29;;;;;;;11.50;3.25;;;;;;;11.55;100.00;96541.63;5015157;28;20088;-72
2022/05/25 07:28:55;;;;;;;7.07;3.30;;;;;;;11.42;100.00;96532.91;5017323;28;20041;-74
2022/05/25 07:31:37;;;;;;;11.25;4.10;;;;;;;11.53;100.00;96541.91;5017231;28;20146;-75
2022/05/25 07:34:04;;;;;;;10.85;3.55;;;;;;;11.58;100.00;96541.94;5014455;28;20083;-76
2022/05/25 07:36:32;;;;;;;12.40;3.42;;;;;;;11.77;100.00;96531.69;5016011;28;20038;-74
2022/05/25 07:39:01;;;;;;;6.28;2.67;;;;;;;12.08;100.00;96535.47;5015336;28;20060;-74
2022/05/25 07:41:27;;;;;;;6.10;2.67;;;;;;;12.27;100.00;96531.31;5016313;28;20434;-74
2022/05/25 07:43:58;;;;;;;6.03;2.60;;;;;;;12.33;100.00;96532.16;5014659;28;20033;-73
2022/05/25 07:46:26;;;;;;;7.07;2.60;;;;;;;12.62;100.00;96531.81;5014435;28;20033;-71
2022/05/25 07:48:52;;;;;;;5.55;2.75;;;;;;;12.66;100.00;96532.91;5016017;28;20689;-71
2022/05/25 07:51:18;;;;;;;3.88;2.08;;;;;;;12.49;100.00;96546.50;5014030;28;20058;-71
2022/05/25 07:53:56;;;;;;;6.22;2.10;;;;;;;12.48;100.00;96551.06;5012621;28;20096;-72
2022/05/25 07:56:29;;;;;;;6.57;2.20;;;;;;;12.42;100.00;96546.72;5019244;28;20033;-71
2022/05/25 07:58:56;;;;;;;9.75;2.17;;;;;;;12.38;100.00;96545.63;5008804;28;20086;-72
2022/05/25 08:06:57;;;;;;;8.13;1.38;;;;;;;12.17;100.00;96533.13;5014207;28;20053;-73
2022/05/25 08:09:23;;;;;;;8.45;1.20;;;;;;;12.19;100.00;96531.78;5015665;28;20392;-74
2022/05/25 08:11:49;;;;;;;3.28;1.33;;;;;;;12.08;100.00;96540.03;5016300;28;20041;-72
2022/05/25 08:14:15;;;;;;;6.93;1.25;;;;;;;12.07;100.00;96533.03;5012667;28;20042;-72
2022/05/25 08:16:40;;;;;;;3.15;1.20;;;;;;;12.18;100.00;96535.53;5014972;28;20046;-72
2022/05/25 08:19:06;;;;;;;4.18;1.40;;;;;;;12.12;100.00;96527.69;5016141;28;20112;-73
2022/05/25 08:21:31;;;;;;;4.18;1.30;;;;;;;12.15;100.00;96532.56;5017139;28;20050;-72
2022/05/25 08:23:57;;;;;;;5.78;1.65;;;;;;;12.24;100.00;96529.16;5019124;28;20049;-71
2022/05/25 08:26:22;;;;;;;3.78;1.30;;;;;;;12.41;100.00;96539.72;5013860;28;20037;-71
2022/05/25 08:28:47;;;;;;;5.63;1.50;;;;;;;12.42;100.00;96540.53;5016879;28;20155;-71
2022/05/25 08:31:13;;;;;;;3.88;1.23;;;;;;;12.45;100.00;96543.53;5012574;28;20396;-72
2022/05/25 08:33:43;;;;;;;2.47;1.20;;;;;;;12.47;100.00;96548.63;5016902;28;20769;-71
2022/05/25 08:36:09;;;;;;;6.38;1.25;;;;;;;12.48;100.00;96547.56;5013460;28;20046;-71
2022/05/25 08:38:34;;;;;;;4.38;1.27;;;;;;;12.47;100.00;96533.34;5012689;28;20048;-71
2022/05/25 08:41:00;;;;;;;3.28;1.33;;;;;;;12.62;100.00;96545.25;5016001;28;20060;-73
2022/05/25 08:43:40;;;;;;;6.40;1.45;;;;;;;12.70;100.00;96536.72;5013800;28;20045;-71
2022/05/25 08:46:07;;;;;;;4.70;1.30;;;;;;;12.75;100.00;96542.88;5014200;28;20041;-71
2022/05/25 08:48:34;;;;;;;2.50;0.88;;;;;;;12.81;100.00;96544.53;5031887;28;20782;-73
2022/05/25 08:51:08;;;;;;;5.50;0.90;;;;;;;13.00;100.00;96547.63;5016123;28;20060;-72
2022/05/25 08:53:35;;;;;;;2.17;0.70;;;;;;;13.16;100.00;96540.44;5014097;28;20373;-71
2022/05/25 08:56:29;;;;;;;5.47;1.50;;;;;;;13.29;100.00;96556.06;4996882;28;20598;-73
2022/05/25 08:59:26;;;;;;;7.25;1.10;;;;;;;13.33;100.00;96554.50;5012082;28;20603;-71
2022/05/25 09:01:58;;;;;;;2.45;0.70;;;;;;;13.46;100.00;96545.09;5012537;28;20431;-71
2022/05/25 09:04:37;;;;;;;2.22;0.80;;;;;;;13.32;100.00;96552.06;5005010;28;20061;-73
2022/05/25 09:07:12;;;;;;;5.28;0.90;;;;;;;13.27;100.00;96546.66;5014028;28;20146;-73
2022/05/25 09:09:40;;;;;;;3.80;0.90;;;;;;;13.37;100.00;96554.75;5020728;28;20045;-71
2022/05/25 09:12:30;;;;;;;2.80;0.85;;;;;;;13.55;100.00;96545.44;5016326;28;20046;-71
2022/05/25 09:15:04;;;;;;;2.55;1.00;;;;;;;14.15;100.00;96547.38;5023825;28;20059;-73
2022/05/25 09:17:45;;;;;;;2.15;0.90;;;;;;;14.21;100.00;96548.19;5018497;28;20228;-71
2022/05/25 09:20:15;;;;;;;2.80;1.00;;;;;;;13.83;100.00;96560.25;5019519;28;20053;-72
2022/05/25 09:22:41;;;;;;;2.42;0.73;;;;;;;13.65;100.00;96565.06;5034353;28;20481;-73
2022/05/25 09:25:09;;;;;;;4.10;0.70;;;;;;;13.63;100.00;96561.03;5015658;28;20045;-73
2022/05/25 09:27:47;;;;;;;1.60;0.70;;;;;;;13.84;100.00;96562.69;5018832;28;20623;-71
2022/05/25 09:30:15;;;;;;;3.33;0.90;;;;;;;14.18;100.00;96556.81;5017289;28;20060;-71
2022/05/25 09:32:47;;;;;;;3.05;0.80;;;;;;;14.26;100.00;96553.59;5018072;28;20068;-73
2022/05/25 09:35:20;;;;;;;3.00;0.90;;;;;;;14.36;100.00;96558.97;5019604;28;20380;-72
2022/05/25 09:38:02;;;;;;;2.58;0.80;;;;;;;14.39;100.00;96558.41;5020831;28;20045;-71
2022/05/25 09:40:40;;;;;;;3.75;0.80;;;;;;;14.45;100.00;96560.06;4997224;28;20034;-71
2022/05/25 09:43:09;;;;;;;2.63;0.88;;;;;;;14.40;100.00;96559.25;5003785;28;20124;-71
2022/05/25 09:45:48;;;;;;;4.22;0.88;;;;;;;14.79;100.00;96556.81;5020338;28;20045;-71
2022/05/25 09:48:29;;;;;;;7.95;1.20;;;;;;;15.02;100.00;96561.59;5016299;28;20119;-72
2022/05/25 09:51:05;;;;;;;4.80;0.95;;;;;;;14.91;100.00;96560.00;5017967;28;20049;-71
2022/05/25 09:53:50;;;;;;;4.68;1.00;;;;;;;14.34;100.00;96558.44;5019160;28;20037;-71
2022/05/25 09:56:28;;;;;;;3.35;1.00;;;;;;;14.59;100.00;96563.00;5015941;28;20563;-71
2022/05/25 09:58:58;;;;;;;7.82;0.90;;;;;;;15.08;99.98;96559.66;5016367;28;20072;-72
2022/05/25 10:01:42;;;;;;;6.53;1.05;;;;;;;15.15;100.00;96554.81;5015390;28;20056;-75
2022/05/25 10:04:10;;;;;;;5.72;1.27;;;;;;;15.53;99.87;96558.69;5016376;28;20041;-71
2022/05/25 10:06:52;;;;;;;2.83;0.82;;;;;;;15.91;96.41;96547.44;5015945;28;20140;-71
2022/05/25 10:09:27;;;;;;;6.20;1.20;;;;;;;16.00;93.05;96556.56;5014289;28;20383;-72
2022/05/25 10:11:53;;;;;;;5.30;1.23;;;;;;;15.83;97.98;96557.75;5017016;28;20095;-71
2022/05/25 10:14:35;;;;;;;3.83;1.05;;;;;;;15.83;99.13;96557.75;5017773;28;20037;-71
2022/05/25 10:17:11;;;;;;;;;;;;;;;15.85;95.60;96550.16;5014935;28;20050;-71
2022/05/25 10:19:49;;;;;;;5.22;1.63;;;;;;;15.96;99.87;96548.22;5015828;28;19917;-72
2022/05/25 10:22:33;;;;;;;3.05;1.30;;;;;;;16.19;95.19;96541.31;5019360;28;20049;-72
2022/05/25 10:25:07;;;;;;;5.28;1.00;;;;;;;15.79;98.42;96553.97;5016773;28;20120;-72
2022/05/25 10:27:38;;;;;;;1.80;0.80;;;;;;;16.09;94.83;96542.19;5018436;28;20083;-72
2022/05/25 10:38:49;;;;;;;2.80;0.90;;;;;;;18.29;83.68;96535.09;4672498;28;10001097;-72
2022/05/25 10:44:22;;;;;;;3.03;0.80;;;;;;;17.70;86.71;96533.78;5013650;28;20375;-71
2022/05/25 10:46:57;;;;;;;4.95;0.93;;;;;;;17.81;88.30;96524.44;4992952;28;20049;-72
2022/05/25 10:49:29;;;;;;;2.95;1.10;;;;;;;18.31;86.66;96528.28;5014261;28;20514;-71
2022/05/25 10:52:18;;;;;;;4.32;1.10;;;;;;;18.30;79.98;96531.28;5014228;28;20037;-72
2022/05/25 10:54:55;;;;;;;5.00;0.90;;;;;;;18.55;77.09;96527.34;5014843;28;20580;-72
2022/05/25 10:57:21;;;;;;;2.05;0.80;;;;;;;18.96;76.67;96532.03;5014662;28;20443;-72
2022/05/25 11:00:03;;;;;;;3.85;0.65;;;;;;;19.46;72.24;96532.97;5013234;28;20048;-73
2022/05/25 11:03:02;;;;;;;2.92;0.77;;;;;;;18.86;69.76;96549.31;5016397;28;20568;-72
2022/05/25 11:06:05;;;;;;;5.15;0.60;;;;;;;18.12;60.88;96548.34;5015566;28;20060;-71
2022/05/25 11:08:39;;;;;;;3.25;0.70;;;;;;;18.46;61.93;96559.72;5030184;28;20052;-74
2022/05/25 11:11:46;;;;;;;0.77;0.50;;;;;;;19.48;58.65;96553.25;5013210;28;20045;-75
2022/05/25 11:14:46;;;;;;;5.65;0.73;;;;;;;20.51;45.76;96549.88;5016540;28;20084;-71
2022/05/25 11:17:20;;;;;;;5.70;0.60;;;;;;;21.65;38.96;96536.50;5016358;28;20059;-71
2022/05/25 11:20:11;;;;;;;1.40;0.50;;;;;;;21.10;43.52;96533.41;5012974;28;20107;-72
2022/05/25 11:23:06;;;;;;;4.55;0.70;;;;;;;23.65;36.34;96533.44;5015942;28;20041;-72
2022/05/25 11:26:02;;;;;;;2.75;0.80;;;;;;;25.33;30.64;96534.81;5015230;28;20416;-71
2022/05/25 11:28:41;;;;;;;1.80;0.68;;;;;;;27.68;26.83;96530.50;5015610;28;20631;-72
2022/05/25 11:31:23;;;;;;;3.17;0.90;;;;;;;29.51;24.62;96522.78;5016203;28;20108;-71
2022/05/25 11:34:15;;;;;;;0.82;0.40;;;;;;;26.61;27.26;96541.47;5012146;28;20092;-71
2022/05/25 11:37:00;;;;;;;;;;;;;;;26.97;28.26;96528.72;5015172;28;20053;-73
2022/05/25 11:39:44;;;;;;;6.32;0.80;;;;;;;29.97;22.89;96514.41;5012814;28;19923;-74
2022/05/25 11:42:35;;;;;;;1.08;0.40;;;;;;;31.68;22.22;96507.97;5011518;28;20041;-73
2022/05/25 11:45:26;;;;;;;2.08;0.45;;;;;;;33.00;20.46;96516.94;5018365;28;20134;-74
2022/05/25 11:48:19;;;;;;;2.10;0.52;;;;;;;29.08;23.23;96515.72;5008141;28;20041;-72
2022/05/25 11:51:10;;;;;;;2.13;0.50;;;;;;;29.89;21.99;96509.97;5014326;28;20037;-74
2022/05/25 11:53:41;;;;;;;3.10;0.60;;;;;;;32.37;21.47;96519.09;5013702;28;20119;-73
2022/05/25 11:56:28;;;;;;;3.08;0.80;;;;;;;33.62;21.17;96524.09;5032215;28;20091;-72
2022/05/25 11:59:00;;;;;;;1.73;0.50;;;;;;;34.23;18.84;96513.69;5016828;28;20252;-75
2022/05/25 12:01:37;;;;;;;1.45;0.45;;;;;;;33.92;20.54;96516.16;5013767;28;20061;-73
2022/05/25 12:04:21;;;;;;;1.00;0.40;;;;;;;28.01;26.04;96528.13;5015596;28;20440;-75
2022/05/25 12:07:14;;;;;;;4.70;0.40;;;;;;;24.37;30.48;96533.09;5017168;28;20053;-72
2022/05/25 12:09:39;;;;;;;1.88;0.47;;;;;;;22.86;34.45;96543.88;5014634;28;20044;-71
2022/05/25 12:12:13;;;;;;;2.40;0.40;;;;;;;24.04;33.71;96527.53;5012738;28;20042;-72
2022/05/25 12:14:59;;;;;;;6.07;0.70;;;;;;;23.92;32.86;96529.41;5014023;28;20539;-73
2022/05/25 12:17:35;;;;;;;4.90;0.60;;;;;;;22.41;34.07;96524.34;5015187;28;20479;-73
2022/05/25 12:20:06;;;;;;;1.05;0.57;;;;;;;28.09;26.60;96520.81;5015481;28;20049;-73